sensor_id;sensor_type;location;lat;lon;timestamp;pressure;altitude;pressure_sealevel;temperature;humidity
11329;BME280;5719;42.714;23.732;2022-08-19T00:01:19;94227.84;;;19.27;87.14
11329;BME280;5719;42.714;23.732;2022-08-19T00:03:46;94219.34;;;19.25;86.83
11329;BME280;5719;42.714;23.732;2022-08-19T00:06:13;94221.50;;;19.14;87.96
11329;BME280;5719;42.714;23.732;2022-08-19T00:08:40;94223.97;;;19.15;87.19
11329;BME280;5719;42.714;23.732;2022-08-19T00:11:08;94221.69;;;19.12;87.70
11329;BME280;5719;42.714;23.732;2022-08-19T00:13:37;94217.44;;;19.11;87.15
11329;BME280;5719;42.714;23.732;2022-08-19T00:16:05;94215.44;;;19.13;87.85
11329;BME280;5719;42.714;23.732;2022-08-19T00:18:32;94212.53;;;19.08;88.28
11329;BME280;5719;42.714;23.732;2022-08-19T00:20:59;94212.06;;;18.96;88.26
11329;BME280;5719;42.714;23.732;2022-08-19T00:23:26;94216.47;;;18.96;88.73
11329;BME280;5719;42.714;23.732;2022-08-19T00:25:53;94225.00;;;18.90;89.26
11329;BME280;5719;42.714;23.732;2022-08-19T00:28:20;94225.66;;;18.84;89.04
11329;BME280;5719;42.714;23.732;2022-08-19T00:30:48;94230.41;;;18.80;89.85
11329;BME280;5719;42.714;23.732;2022-08-19T00:33:17;94229.94;;;18.69;90.41
11329;BME280;5719;42.714;23.732;2022-08-19T00:35:44;94226.50;;;18.60;91.40
11329;BME280;5719;42.714;23.732;2022-08-19T00:38:11;94219.09;;;18.47;92.10
11329;BME280;5719;42.714;23.732;2022-08-19T00:40:37;94224.19;;;18.49;91.89
11329;BME280;5719;42.714;23.732;2022-08-19T00:43:08;94223.38;;;18.48;91.75
11329;BME280;5719;42.714;23.732;2022-08-19T00:45:36;94224.38;;;18.39;92.59
11329;BME280;5719;42.714;23.732;2022-08-19T00:48:07;94236.44;;;18.40;92.73
11329;BME280;5719;42.714;23.732;2022-08-19T00:50:34;94236.78;;;18.37;92.52
11329;BME280;5719;42.714;23.732;2022-08-19T00:53:02;94222.38;;;18.33;92.12
11329;BME280;5719;42.714;23.732;2022-08-19T00:55:31;94221.88;;;18.30;93.49
11329;BME280;5719;42.714;23.732;2022-08-19T00:58:02;94229.72;;;18.22;93.55
11329;BME280;5719;42.714;23.732;2022-08-19T01:00:30;94216.47;;;18.15;93.92
11329;BME280;5719;42.714;23.732;2022-08-19T01:02:58;94235.97;;;18.21;93.70
11329;BME280;5719;42.714;23.732;2022-08-19T01:05:27;94236.28;;;18.18;93.46
11329;BME280;5719;42.714;23.732;2022-08-19T01:07:56;94229.56;;;18.15;93.29
11329;BME280;5719;42.714;23.732;2022-08-19T01:10:27;94220.72;;;18.08;93.45
11329;BME280;5719;42.714;23.732;2022-08-19T01:12:57;94220.06;;;17.98;92.93
11329;BME280;5719;42.714;23.732;2022-08-19T01:15:27;94224.44;;;17.89;92.78
11329;BME280;5719;42.714;23.732;2022-08-19T01:17:55;94225.25;;;17.74;94.03
11329;BME280;5719;42.714;23.732;2022-08-19T01:20:24;94232.59;;;17.78;93.94
11329;BME280;5719;42.714;23.732;2022-08-19T01:22:54;94231.88;;;17.60;94.93
11329;BME280;5719;42.714;23.732;2022-08-19T01:25:26;94222.03;;;17.54;95.51
11329;BME280;5719;42.714;23.732;2022-08-19T01:27:54;94224.00;;;17.52;95.46
11329;BME280;5719;42.714;23.732;2022-08-19T01:30:28;94228.56;;;17.50;95.34
11329;BME280;5719;42.714;23.732;2022-08-19T01:32:56;94224.72;;;17.28;97.69
11329;BME280;5719;42.714;23.732;2022-08-19T01:35:25;94224.06;;;17.26;98.32
11329;BME280;5719;42.714;23.732;2022-08-19T01:37:55;94221.13;;;17.29;97.82
11329;BME280;5719;42.714;23.732;2022-08-19T01:40:26;94214.63;;;17.33;97.44
11329;BME280;5719;42.714;23.732;2022-08-19T01:42:54;94212.66;;;17.35;97.03
11329;BME280;5719;42.714;23.732;2022-08-19T01:45:23;94209.72;;;17.38;96.47
11329;BME280;5719;42.714;23.732;2022-08-19T01:47:51;94216.28;;;17.42;96.08
11329;BME280;5719;42.714;23.732;2022-08-19T01:50:18;94219.66;;;17.35;96.73
11329;BME280;5719;42.714;23.732;2022-08-19T01:52:45;94219.22;;;17.39;96.47
11329;BME280;5719;42.714;23.732;2022-08-19T01:55:16;94216.56;;;17.31;96.56
11329;BME280;5719;42.714;23.732;2022-08-19T01:57:51;94229.31;;;17.34;96.60
11329;BME280;5719;42.714;23.732;2022-08-19T02:00:21;94219.81;;;17.25;96.78
11329;BME280;5719;42.714;23.732;2022-08-19T02:02:49;94215.88;;;17.21;97.49
11329;BME280;5719;42.714;23.732;2022-08-19T02:05:15;94215.88;;;17.21;97.13
11329;BME280;5719;42.714;23.732;2022-08-19T02:07:44;94214.84;;;17.14;98.03
11329;BME280;5719;42.714;23.732;2022-08-19T02:10:13;94218.13;;;17.16;97.16
11329;BME280;5719;42.714;23.732;2022-08-19T02:12:42;94211.09;;;17.16;97.42
11329;BME280;5719;42.714;23.732;2022-08-19T02:15:10;94220.44;;;17.19;97.62
11329;BME280;5719;42.714;23.732;2022-08-19T02:17:37;94218.38;;;17.05;97.58
11329;BME280;5719;42.714;23.732;2022-08-19T02:20:04;94216.78;;;17.04;97.22
11329;BME280;5719;42.714;23.732;2022-08-19T02:22:31;94227.22;;;17.04;97.42
11329;BME280;5719;42.714;23.732;2022-08-19T02:24:58;94217.09;;;17.01;97.12
11329;BME280;5719;42.714;23.732;2022-08-19T02:27:25;94232.25;;;17.05;96.42
11329;BME280;5719;42.714;23.732;2022-08-19T02:29:53;94234.06;;;17.05;96.82
11329;BME280;5719;42.714;23.732;2022-08-19T02:32:20;94226.41;;;17.03;97.10
11329;BME280;5719;42.714;23.732;2022-08-19T02:34:47;94233.72;;;17.00;97.54
11329;BME280;5719;42.714;23.732;2022-08-19T02:37:14;94235.31;;;16.93;98.00
11329;BME280;5719;42.714;23.732;2022-08-19T02:39:55;94242.84;;;16.96;97.69
11329;BME280;5719;42.714;23.732;2022-08-19T02:42:22;94232.34;;;16.88;97.88
11329;BME280;5719;42.714;23.732;2022-08-19T02:44:49;94231.72;;;16.68;99.61
11329;BME280;5719;42.714;23.732;2022-08-19T02:47:18;94226.97;;;16.63;100.00
11329;BME280;5719;42.714;23.732;2022-08-19T02:49:45;94243.91;;;16.59;100.00
11329;BME280;5719;42.714;23.732;2022-08-19T02:52:14;94234.63;;;16.65;99.88
11329;BME280;5719;42.714;23.732;2022-08-19T02:54:41;94240.66;;;16.65;99.31
11329;BME280;5719;42.714;23.732;2022-08-19T02:57:08;94238.53;;;16.61;99.82
11329;BME280;5719;42.714;23.732;2022-08-19T02:59:36;94242.84;;;16.52;99.97
11329;BME280;5719;42.714;23.732;2022-08-19T03:02:05;94234.19;;;16.52;99.70
11329;BME280;5719;42.714;23.732;2022-08-19T03:04:33;94236.28;;;16.48;100.00
11329;BME280;5719;42.714;23.732;2022-08-19T03:07:01;94238.22;;;16.46;100.00
11329;BME280;5719;42.714;23.732;2022-08-19T03:09:27;94241.13;;;16.43;100.00
11329;BME280;5719;42.714;23.732;2022-08-19T03:11:55;94242.25;;;16.41;100.00
11329;BME280;5719;42.714;23.732;2022-08-19T03:14:22;94235.56;;;16.38;100.00
11329;BME280;5719;42.714;23.732;2022-08-19T03:16:51;94233.06;;;16.37;100.00
11329;BME280;5719;42.714;23.732;2022-08-19T03:19:19;94239.22;;;16.28;100.00
11329;BME280;5719;42.714;23.732;2022-08-19T03:21:48;94232.72;;;16.14;100.00
11329;BME280;5719;42.714;23.732;2022-08-19T03:24:16;94238.84;;;16.05;100.00
11329;BME280;5719;42.714;23.732;2022-08-19T03:26:47;94232.94;;;16.03;100.00
11329;BME280;5719;42.714;23.732;2022-08-19T03:29:15;94236.97;;;15.97;100.00
11329;BME280;5719;42.714;23.732;2022-08-19T03:31:44;94239.34;;;15.91;100.00
11329;BME280;5719;42.714;23.732;2022-08-19T03:34:13;94245.91;;;15.95;100.00
11329;BME280;5719;42.714;23.732;2022-08-19T03:36:40;94243.00;;;15.98;100.00
11329;BME280;5719;42.714;23.732;2022-08-19T03:39:10;94250.13;;;15.96;100.00
11329;BME280;5719;42.714;23.732;2022-08-19T03:41:39;94243.97;;;15.97;100.00
11329;BME280;5719;42.714;23.732;2022-08-19T03:44:06;94248.88;;;16.00;100.00
11329;BME280;5719;42.714;23.732;2022-08-19T03:46:34;94243.00;;;15.98;100.00
11329;BME280;5719;42.714;23.732;2022-08-19T03:49:04;94243.66;;;16.00;100.00
11329;BME280;5719;42.714;23.732;2022-08-19T03:51:33;94244.78;;;15.97;100.00
11329;BME280;5719;42.714;23.732;2022-08-19T03:54:04;94238.09;;;15.95;100.00
11329;BME280;5719;42.714;23.732;2022-08-19T03:56:33;94241.38;;;15.97;100.00
11329;BME280;5719;42.714;23.732;2022-08-19T03:59:01;94242.78;;;15.91;100.00
11329;BME280;5719;42.714;23.732;2022-08-19T04:01:28;94254.19;;;15.90;100.00
11329;BME280;5719;42.714;23.732;2022-08-19T04:03:56;94243.81;;;15.81;100.00
11329;BME280;5719;42.714;23.732;2022-08-19T04:06:27;94248.88;;;15.82;100.00
11329;BME280;5719;42.714;23.732;2022-08-19T04:08:56;94252.16;;;15.84;100.00
11329;BME280;5719;42.714;23.732;2022-08-19T04:11:26;94265.34;;;15.83;100.00
11329;BME280;5719;42.714;23.732;2022-08-19T04:13:55;94255.31;;;15.88;100.00
11329;BME280;5719;42.714;23.732;2022-08-19T04:16:24;94253.22;;;15.91;100.00
11329;BME280;5719;42.714;23.732;2022-08-19T04:18:54;94256.03;;;15.98;100.00
11329;BME280;5719;42.714;23.732;2022-08-19T04:21:23;94262.00;;;16.08;100.00
11329;BME280;5719;42.714;23.732;2022-08-19T04:23:50;94262.69;;;16.10;100.00
11329;BME280;5719;42.714;23.732;2022-08-19T04:26:22;94261.56;;;16.12;100.00
11329;BME280;5719;42.714;23.732;2022-08-19T04:28:49;94268.34;;;16.23;100.00
11329;BME280;5719;42.714;23.732;2022-08-19T04:31:20;94263.66;;;16.27;100.00
11329;BME280;5719;42.714;23.732;2022-08-19T04:33:48;94276.16;;;16.41;100.00
11329;BME280;5719;42.714;23.732;2022-08-19T04:36:17;94278.13;;;16.56;100.00
11329;BME280;5719;42.714;23.732;2022-08-19T04:38:46;94274.97;;;16.71;100.00
11329;BME280;5719;42.714;23.732;2022-08-19T04:41:13;94272.78;;;16.84;100.00
11329;BME280;5719;42.714;23.732;2022-08-19T04:43:57;94278.44;;;16.97;100.00
11329;BME280;5719;42.714;23.732;2022-08-19T04:46:26;94280.41;;;17.03;100.00
11329;BME280;5719;42.714;23.732;2022-08-19T04:48:54;94272.13;;;17.07;100.00
11329;BME280;5719;42.714;23.732;2022-08-19T04:51:22;94274.28;;;17.12;100.00
11329;BME280;5719;42.714;23.732;2022-08-19T04:53:50;94278.69;;;17.11;100.00
11329;BME280;5719;42.714;23.732;2022-08-19T04:56:18;94275.91;;;17.13;100.00
11329;BME280;5719;42.714;23.732;2022-08-19T04:58:46;94272.38;;;17.22;100.00
11329;BME280;5719;42.714;23.732;2022-08-19T05:01:14;94270.16;;;17.35;100.00
11329;BME280;5719;42.714;23.732;2022-08-19T05:03:42;94258.25;;;17.41;100.00
11329;BME280;5719;42.714;23.732;2022-08-19T05:06:12;94278.28;;;17.58;100.00
11329;BME280;5719;42.714;23.732;2022-08-19T05:08:41;94273.25;;;17.64;100.00
11329;BME280;5719;42.714;23.732;2022-08-19T05:11:10;94293.41;;;17.80;100.00
11329;BME280;5719;42.714;23.732;2022-08-19T05:13:38;94283.00;;;17.96;100.00
11329;BME280;5719;42.714;23.732;2022-08-19T05:16:06;94273.41;;;18.13;100.00
11329;BME280;5719;42.714;23.732;2022-08-19T05:18:33;94278.66;;;18.29;100.00
11329;BME280;5719;42.714;23.732;2022-08-19T05:21:20;94284.41;;;18.49;100.00
11329;BME280;5719;42.714;23.732;2022-08-19T05:24:04;94283.16;;;18.61;100.00
11329;BME280;5719;42.714;23.732;2022-08-19T05:26:34;94276.91;;;18.78;100.00
11329;BME280;5719;42.714;23.732;2022-08-19T05:29:02;94273.47;;;18.94;100.00
11329;BME280;5719;42.714;23.732;2022-08-19T05:31:31;94273.44;;;19.10;100.00
11329;BME280;5719;42.714;23.732;2022-08-19T05:33:58;94278.31;;;19.29;99.70
11329;BME280;5719;42.714;23.732;2022-08-19T05:36:27;94279.59;;;19.49;98.77
11329;BME280;5719;42.714;23.732;2022-08-19T05:38:55;94277.25;;;19.71;99.26
11329;BME280;5719;42.714;23.732;2022-08-19T05:41:22;94277.00;;;19.88;98.34
11329;BME280;5719;42.714;23.732;2022-08-19T05:43:54;94279.13;;;20.16;97.43
11329;BME280;5719;42.714;23.732;2022-08-19T05:46:22;94271.69;;;20.35;94.74
11329;BME280;5719;42.714;23.732;2022-08-19T05:48:48;94279.44;;;20.51;92.52
11329;BME280;5719;42.714;23.732;2022-08-19T05:51:16;94282.41;;;20.71;92.28
11329;BME280;5719;42.714;23.732;2022-08-19T05:53:44;94286.63;;;20.95;91.36
11329;BME280;5719;42.714;23.732;2022-08-19T05:56:13;94275.03;;;21.12;89.89
11329;BME280;5719;42.714;23.732;2022-08-19T05:58:42;94288.59;;;21.38;86.46
11329;BME280;5719;42.714;23.732;2022-08-19T06:01:11;94298.00;;;21.62;82.48
11329;BME280;5719;42.714;23.732;2022-08-19T06:03:39;94291.63;;;21.86;79.99
11329;BME280;5719;42.714;23.732;2022-08-19T06:06:07;94295.47;;;22.13;79.75
11329;BME280;5719;42.714;23.732;2022-08-19T06:08:36;94289.50;;;22.40;77.76
11329;BME280;5719;42.714;23.732;2022-08-19T06:11:17;94293.19;;;22.67;74.95
11329;BME280;5719;42.714;23.732;2022-08-19T06:13:45;94289.47;;;22.97;70.82
11329;BME280;5719;42.714;23.732;2022-08-19T06:16:16;94296.00;;;23.29;67.01
11329;BME280;5719;42.714;23.732;2022-08-19T06:18:48;94297.59;;;23.44;66.49
11329;BME280;5719;42.714;23.732;2022-08-19T06:21:17;94296.84;;;23.57;65.44
11329;BME280;5719;42.714;23.732;2022-08-19T06:23:44;94300.22;;;23.79;65.64
11329;BME280;5719;42.714;23.732;2022-08-19T06:26:12;94295.84;;;23.92;63.87
11329;BME280;5719;42.714;23.732;2022-08-19T06:28:41;94294.94;;;24.13;64.84
11329;BME280;5719;42.714;23.732;2022-08-19T06:31:13;94297.28;;;24.36;62.35
11329;BME280;5719;42.714;23.732;2022-08-19T06:33:42;94297.13;;;24.57;61.31
11329;BME280;5719;42.714;23.732;2022-08-19T06:36:17;94299.63;;;24.85;60.99
11329;BME280;5719;42.714;23.732;2022-08-19T06:38:44;94303.97;;;25.12;59.62
11329;BME280;5719;42.714;23.732;2022-08-19T06:41:11;94295.00;;;25.33;58.90
11329;BME280;5719;42.714;23.732;2022-08-19T06:43:38;94297.84;;;25.51;59.57
11329;BME280;5719;42.714;23.732;2022-08-19T06:46:12;94305.56;;;25.79;58.57
11329;BME280;5719;42.714;23.732;2022-08-19T06:48:40;94313.44;;;26.05;59.42
11329;BME280;5719;42.714;23.732;2022-08-19T06:51:07;94300.56;;;26.28;57.58
11329;BME280;5719;42.714;23.732;2022-08-19T06:53:34;94304.53;;;26.51;56.74
11329;BME280;5719;42.714;23.732;2022-08-19T06:56:01;94294.41;;;26.72;56.26
11329;BME280;5719;42.714;23.732;2022-08-19T06:58:28;94296.81;;;26.80;53.77
11329;BME280;5719;42.714;23.732;2022-08-19T07:00:58;94291.56;;;26.74;54.12
11329;BME280;5719;42.714;23.732;2022-08-19T07:03:29;94295.94;;;26.93;53.80
11329;BME280;5719;42.714;23.732;2022-08-19T07:05:57;94297.84;;;27.11;53.56
11329;BME280;5719;42.714;23.732;2022-08-19T07:08:24;94299.13;;;27.33;52.77
11329;BME280;5719;42.714;23.732;2022-08-19T07:10:52;94298.25;;;27.46;50.59
11329;BME280;5719;42.714;23.732;2022-08-19T07:13:20;94298.84;;;27.66;51.22
11329;BME280;5719;42.714;23.732;2022-08-19T07:15:48;94291.72;;;27.85;51.60
11329;BME280;5719;42.714;23.732;2022-08-19T07:18:17;94299.03;;;27.71;49.19
11329;BME280;5719;42.714;23.732;2022-08-19T07:20:46;94300.25;;;27.44;48.15
11329;BME280;5719;42.714;23.732;2022-08-19T07:23:13;94294.56;;;27.40;50.48
11329;BME280;5719;42.714;23.732;2022-08-19T07:25:40;94294.69;;;27.52;50.64
11329;BME280;5719;42.714;23.732;2022-08-19T07:28:08;94291.50;;;27.68;50.23
11329;BME280;5719;42.714;23.732;2022-08-19T07:30:39;94291.06;;;27.89;49.68
11329;BME280;5719;42.714;23.732;2022-08-19T07:33:06;94287.75;;;27.94;50.15
11329;BME280;5719;42.714;23.732;2022-08-19T07:35:33;94293.94;;;28.12;48.89
11329;BME280;5719;42.714;23.732;2022-08-19T07:38:01;94293.03;;;28.37;47.88
11329;BME280;5719;42.714;23.732;2022-08-19T07:40:31;94292.38;;;28.53;47.46
11329;BME280;5719;42.714;23.732;2022-08-19T07:42:58;94287.91;;;28.83;48.28
11329;BME280;5719;42.714;23.732;2022-08-19T07:45:25;94290.06;;;29.04;46.23
11329;BME280;5719;42.714;23.732;2022-08-19T07:47:54;94288.88;;;29.30;47.25
11329;BME280;5719;42.714;23.732;2022-08-19T07:50:21;94289.81;;;29.59;46.91
11329;BME280;5719;42.714;23.732;2022-08-19T07:52:49;94291.56;;;29.53;44.53
11329;BME280;5719;42.714;23.732;2022-08-19T07:55:21;94288.66;;;29.55;44.97
11329;BME280;5719;42.714;23.732;2022-08-19T07:57:49;94288.00;;;29.71;46.04
11329;BME280;5719;42.714;23.732;2022-08-19T08:00:18;94288.09;;;29.99;45.58
11329;BME280;5719;42.714;23.732;2022-08-19T08:02:45;94300.13;;;30.25;42.21
11329;BME280;5719;42.714;23.732;2022-08-19T08:05:12;94290.47;;;30.36;42.86
11329;BME280;5719;42.714;23.732;2022-08-19T08:07:56;94301.41;;;30.23;43.92
11329;BME280;5719;42.714;23.732;2022-08-19T08:10:42;94290.13;;;30.32;44.85
11329;BME280;5719;42.714;23.732;2022-08-19T08:13:09;94287.94;;;30.29;45.56
11329;BME280;5719;42.714;23.732;2022-08-19T08:15:36;94287.63;;;30.14;46.01
11329;BME280;5719;42.714;23.732;2022-08-19T08:18:04;94291.56;;;30.23;46.46
11329;BME280;5719;42.714;23.732;2022-08-19T08:20:31;94286.78;;;30.25;47.20
11329;BME280;5719;42.714;23.732;2022-08-19T08:22:58;94286.44;;;30.22;47.08
11329;BME280;5719;42.714;23.732;2022-08-19T08:25:44;94285.25;;;30.41;45.68
11329;BME280;5719;42.714;23.732;2022-08-19T08:28:11;94294.06;;;30.53;46.39
11329;BME280;5719;42.714;23.732;2022-08-19T08:30:37;94288.81;;;30.58;46.53
11329;BME280;5719;42.714;23.732;2022-08-19T08:33:07;94287.06;;;30.63;45.20
11329;BME280;5719;42.714;23.732;2022-08-19T08:35:35;94282.91;;;30.84;43.72
11329;BME280;5719;42.714;23.732;2022-08-19T08:38:03;94284.38;;;31.03;43.21
11329;BME280;5719;42.714;23.732;2022-08-19T08:40:38;94280.56;;;31.16;43.42
11329;BME280;5719;42.714;23.732;2022-08-19T08:43:10;94277.44;;;31.36;43.28
11329;BME280;5719;42.714;23.732;2022-08-19T08:45:45;94274.91;;;31.46;40.92
11329;BME280;5719;42.714;23.732;2022-08-19T08:48:21;94275.16;;;31.28;41.86
11329;BME280;5719;42.714;23.732;2022-08-19T08:50:52;94266.50;;;31.21;40.86
11329;BME280;5719;42.714;23.732;2022-08-19T08:53:22;94261.00;;;31.27;40.30
11329;BME280;5719;42.714;23.732;2022-08-19T08:55:49;94265.94;;;31.52;40.04
11329;BME280;5719;42.714;23.732;2022-08-19T08:58:24;94256.22;;;31.63;41.05
11329;BME280;5719;42.714;23.732;2022-08-19T09:00:53;94257.25;;;31.78;40.33
11329;BME280;5719;42.714;23.732;2022-08-19T09:03:22;94257.41;;;31.88;39.90
11329;BME280;5719;42.714;23.732;2022-08-19T09:06:03;94252.41;;;31.75;38.64
11329;BME280;5719;42.714;23.732;2022-08-19T09:08:45;94254.94;;;32.03;39.29
11329;BME280;5719;42.714;23.732;2022-08-19T09:11:15;94243.91;;;32.17;37.33
11329;BME280;5719;42.714;23.732;2022-08-19T09:14:02;94253.41;;;32.29;38.16
11329;BME280;5719;42.714;23.732;2022-08-19T09:16:30;94248.78;;;32.46;36.82
11329;BME280;5719;42.714;23.732;2022-08-19T09:19:01;94249.56;;;32.64;36.50
11329;BME280;5719;42.714;23.732;2022-08-19T09:21:28;94243.66;;;32.88;35.33
11329;BME280;5719;42.714;23.732;2022-08-19T09:23:55;94243.75;;;32.98;36.13
11329;BME280;5719;42.714;23.732;2022-08-19T09:26:24;94234.63;;;33.21;36.10
11329;BME280;5719;42.714;23.732;2022-08-19T09:28:53;94241.81;;;33.52;34.64
11329;BME280;5719;42.714;23.732;2022-08-19T09:31:22;94242.34;;;33.49;34.28
11329;BME280;5719;42.714;23.732;2022-08-19T09:33:50;94231.91;;;33.53;34.69
11329;BME280;5719;42.714;23.732;2022-08-19T09:36:19;94228.88;;;33.44;34.06
11329;BME280;5719;42.714;23.732;2022-08-19T09:38:48;94222.66;;;33.34;34.97
11329;BME280;5719;42.714;23.732;2022-08-19T09:41:17;94232.09;;;33.73;34.64
11329;BME280;5719;42.714;23.732;2022-08-19T09:43:47;94230.13;;;34.06;33.89
11329;BME280;5719;42.714;23.732;2022-08-19T09:46:16;94230.81;;;34.33;33.16
11329;BME280;5719;42.714;23.732;2022-08-19T09:48:43;94225.28;;;34.08;32.65
11329;BME280;5719;42.714;23.732;2022-08-19T09:51:15;94225.50;;;33.96;32.48
11329;BME280;5719;42.714;23.732;2022-08-19T09:53:44;94223.41;;;34.08;32.64
11329;BME280;5719;42.714;23.732;2022-08-19T09:56:11;94209.69;;;33.94;32.54
11329;BME280;5719;42.714;23.732;2022-08-19T09:58:39;94215.72;;;34.22;31.84
11329;BME280;5719;42.714;23.732;2022-08-19T10:01:07;94211.53;;;34.46;32.23
11329;BME280;5719;42.714;23.732;2022-08-19T10:03:36;94213.16;;;34.52;31.96
11329;BME280;5719;42.714;23.732;2022-08-19T10:06:05;94204.59;;;34.60;32.23
11329;BME280;5719;42.714;23.732;2022-08-19T10:08:34;94213.09;;;34.32;32.12
11329;BME280;5719;42.714;23.732;2022-08-19T10:11:03;94200.22;;;34.39;32.15
11329;BME280;5719;42.714;23.732;2022-08-19T10:13:33;94204.00;;;34.48;31.63
11329;BME280;5719;42.714;23.732;2022-08-19T10:16:05;94201.56;;;34.41;31.48
11329;BME280;5719;42.714;23.732;2022-08-19T10:18:34;94191.94;;;34.56;32.05
11329;BME280;5719;42.714;23.732;2022-08-19T10:21:05;94181.78;;;34.73;31.70
11329;BME280;5719;42.714;23.732;2022-08-19T10:23:34;94181.56;;;34.94;31.00
11329;BME280;5719;42.714;23.732;2022-08-19T10:26:02;94184.28;;;35.15;31.18
11329;BME280;5719;42.714;23.732;2022-08-19T10:28:32;94179.72;;;35.40;30.52
11329;BME280;5719;42.714;23.732;2022-08-19T10:31:04;94186.69;;;35.52;30.56
11329;BME280;5719;42.714;23.732;2022-08-19T10:33:32;94183.72;;;35.38;30.81
11329;BME280;5719;42.714;23.732;2022-08-19T10:36:02;94181.03;;;35.48;29.66
11329;BME280;5719;42.714;23.732;2022-08-19T10:38:30;94178.88;;;35.55;29.53
11329;BME280;5719;42.714;23.732;2022-08-19T10:40:57;94177.00;;;35.66;29.11
11329;BME280;5719;42.714;23.732;2022-08-19T10:43:24;94181.28;;;35.77;29.53
11329;BME280;5719;42.714;23.732;2022-08-19T10:45:54;94183.91;;;36.02;29.54
11329;BME280;5719;42.714;23.732;2022-08-19T10:48:24;94181.19;;;36.12;29.58
11329;BME280;5719;42.714;23.732;2022-08-19T10:50:51;94179.31;;;36.13;28.98
11329;BME280;5719;42.714;23.732;2022-08-19T10:53:37;94185.25;;;36.10;29.35
11329;BME280;5719;42.714;23.732;2022-08-19T10:56:04;94180.84;;;36.29;27.42
11329;BME280;5719;42.714;23.732;2022-08-19T10:58:49;94179.41;;;36.57;26.19
11329;BME280;5719;42.714;23.732;2022-08-19T11:01:16;94172.53;;;36.79;25.51
11329;BME280;5719;42.714;23.732;2022-08-19T11:03:43;94172.38;;;37.05;27.42
11329;BME280;5719;42.714;23.732;2022-08-19T11:06:11;94172.69;;;37.32;25.46
11329;BME280;5719;42.714;23.732;2022-08-19T11:08:39;94177.00;;;37.33;24.43
11329;BME280;5719;42.714;23.732;2022-08-19T11:11:10;94171.94;;;37.26;25.31
11329;BME280;5719;42.714;23.732;2022-08-19T11:13:40;94172.31;;;37.44;25.58
11329;BME280;5719;42.714;23.732;2022-08-19T11:16:11;94169.84;;;37.52;24.07
11329;BME280;5719;42.714;23.732;2022-08-19T11:18:41;94171.97;;;37.55;25.00
11329;BME280;5719;42.714;23.732;2022-08-19T11:21:12;94174.44;;;37.75;25.93
11329;BME280;5719;42.714;23.732;2022-08-19T11:23:41;94179.78;;;37.80;24.57
11329;BME280;5719;42.714;23.732;2022-08-19T11:26:09;94175.38;;;37.90;24.86
11329;BME280;5719;42.714;23.732;2022-08-19T11:28:36;94168.28;;;37.99;24.85
11329;BME280;5719;42.714;23.732;2022-08-19T11:31:04;94172.94;;;38.17;24.97
11329;BME280;5719;42.714;23.732;2022-08-19T11:33:31;94166.94;;;38.20;24.00
11329;BME280;5719;42.714;23.732;2022-08-19T11:35:58;94170.91;;;38.27;24.54
11329;BME280;5719;42.714;23.732;2022-08-19T11:38:26;94168.16;;;38.33;24.69
11329;BME280;5719;42.714;23.732;2022-08-19T11:40:56;94169.78;;;38.52;25.55
11329;BME280;5719;42.714;23.732;2022-08-19T11:43:23;94168.78;;;38.67;24.71
11329;BME280;5719;42.714;23.732;2022-08-19T11:45:52;94157.53;;;38.60;23.75
11329;BME280;5719;42.714;23.732;2022-08-19T11:48:19;94164.78;;;38.64;24.11
11329;BME280;5719;42.714;23.732;2022-08-19T11:50:47;94147.16;;;38.67;24.25
11329;BME280;5719;42.714;23.732;2022-08-19T11:53:14;94156.50;;;38.74;24.42
11329;BME280;5719;42.714;23.732;2022-08-19T11:55:41;94151.16;;;38.69;24.63
11329;BME280;5719;42.714;23.732;2022-08-19T11:58:12;94142.72;;;38.57;24.27
11329;BME280;5719;42.714;23.732;2022-08-19T12:00:39;94140.94;;;38.66;24.38
11329;BME280;5719;42.714;23.732;2022-08-19T12:03:07;94135.47;;;38.71;23.97
11329;BME280;5719;42.714;23.732;2022-08-19T12:05:36;94133.00;;;38.56;23.93
11329;BME280;5719;42.714;23.732;2022-08-19T12:08:04;94133.66;;;38.48;23.81
11329;BME280;5719;42.714;23.732;2022-08-19T12:10:31;94122.78;;;38.53;25.40
11329;BME280;5719;42.714;23.732;2022-08-19T12:12:58;94125.16;;;38.55;23.74
11329;BME280;5719;42.714;23.732;2022-08-19T12:15:27;94121.91;;;38.58;24.93
11329;BME280;5719;42.714;23.732;2022-08-19T12:17:56;94111.31;;;38.61;23.95
11329;BME280;5719;42.714;23.732;2022-08-19T12:20:24;94122.03;;;38.66;24.55
11329;BME280;5719;42.714;23.732;2022-08-19T12:22:51;94113.44;;;38.64;24.91
11329;BME280;5719;42.714;23.732;2022-08-19T12:25:19;94114.13;;;38.70;24.39
11329;BME280;5719;42.714;23.732;2022-08-19T12:27:46;94113.19;;;38.80;25.35
11329;BME280;5719;42.714;23.732;2022-08-19T12:30:13;94111.97;;;38.91;24.88
11329;BME280;5719;42.714;23.732;2022-08-19T12:32:42;94112.75;;;38.91;24.10
11329;BME280;5719;42.714;23.732;2022-08-19T12:35:09;94109.94;;;38.83;24.24
11329;BME280;5719;42.714;23.732;2022-08-19T12:37:39;94116.41;;;38.63;24.69
11329;BME280;5719;42.714;23.732;2022-08-19T12:40:11;94107.38;;;38.72;24.99
11329;BME280;5719;42.714;23.732;2022-08-19T12:42:38;94113.94;;;38.85;23.90
11329;BME280;5719;42.714;23.732;2022-08-19T12:45:13;94106.84;;;38.89;24.40
11329;BME280;5719;42.714;23.732;2022-08-19T12:47:44;94106.84;;;38.89;24.20
11329;BME280;5719;42.714;23.732;2022-08-19T12:50:12;94104.91;;;39.08;24.86
11329;BME280;5719;42.714;23.732;2022-08-19T12:52:39;94097.44;;;39.19;24.06
11329;BME280;5719;42.714;23.732;2022-08-19T12:55:08;94103.94;;;39.18;23.43
11329;BME280;5719;42.714;23.732;2022-08-19T12:57:36;94100.81;;;39.11;23.75
11329;BME280;5719;42.714;23.732;2022-08-19T13:00:06;94097.41;;;39.05;23.82
11329;BME280;5719;42.714;23.732;2022-08-19T13:02:36;94102.38;;;38.98;23.72
11329;BME280;5719;42.714;23.732;2022-08-19T13:05:06;94088.06;;;38.98;24.01
11329;BME280;5719;42.714;23.732;2022-08-19T13:07:33;94094.19;;;38.85;24.65